Time;durP1;ratioP1;P1;durP2;ratioP2;P2;SDS_P1;SDS_P2;PMS_P1;PMS_P2;Temp;Humidity;BMP_temperature;BMP_pressure;BME280_temperature;BME280_humidity;BME280_pressure;Samples;Min_cycle;Max_cycle;Signal;HPM_P1;HPM_P2
2023/11/20 00:01:33;;;;;;;3.00;1.80;;;;;;;9.28;48.46;98552.06;4953605;28;20042;-72
2023/11/20 00:03:59;;;;;;;2.65;1.80;;;;;;;9.31;48.78;98559.66;4969473;28;20023;-72
2023/11/20 00:06:26;;;;;;;2.55;1.70;;;;;;;9.24;48.47;98549.69;4953522;29;20050;-73
2023/11/20 00:08:52;;;;;;;2.60;1.45;;;;;;;9.29;48.70;98564.16;4954150;28;20035;-73
2023/11/20 00:11:18;;;;;;;3.83;1.60;;;;;;;9.28;48.50;98571.13;4953804;28;20042;-74
2023/11/20 00:13:44;;;;;;;2.53;1.40;;;;;;;9.28;48.92;98581.53;4954512;28;20115;-72
2023/11/20 00:16:12;;;;;;;2.88;1.52;;;;;;;9.27;48.56;98579.09;4953498;29;20118;-71
2023/11/20 00:18:38;;;;;;;2.95;1.80;;;;;;;9.26;48.65;98577.41;4953332;28;20034;-72
2023/11/20 00:21:04;;;;;;;2.45;1.50;;;;;;;9.21;49.00;98573.34;4969076;28;20483;-72
2023/11/20 00:23:30;;;;;;;3.70;1.70;;;;;;;9.23;48.65;98584.50;4953585;28;20046;-72
2023/11/20 00:25:55;;;;;;;3.05;1.50;;;;;;;9.18;49.14;98576.19;4954492;28;20455;-72
2023/11/20 00:28:21;;;;;;;2.55;1.60;;;;;;;9.22;48.88;98584.63;4953078;28;20051;-72
2023/11/20 00:30:46;;;;;;;2.28;1.50;;;;;;;9.18;49.05;98573.56;4954284;28;20038;-71
2023/11/20 00:33:12;;;;;;;3.38;1.50;;;;;;;9.17;49.17;98571.94;4953318;28;20059;-72
2023/11/20 00:35:37;;;;;;;2.72;1.58;;;;;;;9.17;48.73;98565.88;4952922;28;20031;-72
2023/11/20 00:38:03;;;;;;;3.45;1.55;;;;;;;9.16;48.83;98559.84;4969475;28;20035;-72
2023/11/20 00:40:29;;;;;;;5.15;1.50;;;;;;;9.21;49.23;98573.34;4951585;28;20392;-71
2023/11/20 00:42:54;;;;;;;1.52;1.15;;;;;;;9.19;49.30;98575.25;4968646;28;20034;-72
2023/11/20 00:45:20;;;;;;;2.28;1.50;;;;;;;9.20;49.04;98586.50;4937006;28;20047;-72
2023/11/20 00:47:45;;;;;;;2.83;1.75;;;;;;;9.16;48.89;98583.28;4937026;28;20475;-71
2023/11/20 00:50:11;;;;;;;2.13;1.38;;;;;;;9.17;49.08;98587.56;4952816;29;20035;-71
2023/11/20 00:52:36;;;;;;;3.17;1.48;;;;;;;9.13;49.02;98578.31;4952968;28;20463;-71
2023/11/20 00:55:10;;;;;;;3.17;1.50;;;;;;;9.16;48.79;98583.28;4953198;29;20042;-71
2023/11/20 00:57:36;;;;;;;2.13;1.20;;;;;;;9.17;49.13;98584.97;4937691;28;20033;-72
2023/11/20 01:00:03;;;;;;;2.35;1.60;;;;;;;9.17;48.96;98586.72;4952582;29;20447;-71
2023/11/20 01:02:29;;;;;;;2.33;1.60;;;;;;;9.16;49.04;98585.06;4956156;28;20503;-71
2023/11/20 01:04:54;;;;;;;2.65;1.60;;;;;;;9.12;49.04;98570.59;4972860;28;20036;-71
2023/11/20 01:07:20;;;;;;;1.95;1.40;;;;;;;9.15;49.19;98576.41;4972792;28;20109;-71
2023/11/20 01:09:45;;;;;;;2.50;1.20;;;;;;;9.15;48.95;98563.38;4972796;28;20035;-72
2023/11/20 01:12:10;;;;;;;2.20;1.35;;;;;;;9.15;49.02;98559.97;4956776;28;20491;-73
2023/11/20 01:14:36;;;;;;;2.00;1.38;;;;;;;9.16;49.07;98559.84;4957673;28;20058;-70
2023/11/20 01:17:02;;;;;;;2.88;1.50;;;;;;;9.15;49.16;98557.34;4957600;28;20055;-70
2023/11/20 01:19:27;;;;;;;2.35;1.50;;;;;;;9.14;49.24;98556.53;4940609;29;20126;-70
2023/11/20 01:21:53;;;;;;;2.35;1.40;;;;;;;9.14;49.03;98546.13;4940096;29;20062;-70
2023/11/20 01:24:18;;;;;;;1.80;1.15;;;;;;;9.08;49.32;98525.75;4940351;28;20407;-70
2023/11/20 01:26:45;;;;;;;1.98;1.38;;;;;;;9.13;48.82;98535.81;4956845;28;20047;-70
2023/11/20 01:29:10;;;;;;;2.40;1.40;;;;;;;9.07;48.91;98531.88;4972460;28;20474;-70
2023/11/20 01:31:36;;;;;;;2.53;1.60;;;;;;;9.12;49.04;98549.78;4972583;28;20043;-70
2023/11/20 01:34:01;;;;;;;3.17;1.38;;;;;;;9.11;48.81;98558.50;4957665;28;20403;-70
2023/11/20 01:36:27;;;;;;;2.25;1.45;;;;;;;9.09;49.06;98566.44;4956263;28;20047;-70
2023/11/20 01:38:52;;;;;;;2.35;1.40;;;;;;;9.08;49.00;98549.16;4957322;28;20034;-72
2023/11/20 01:41:18;;;;;;;2.30;1.30;;;;;;;9.08;48.98;98543.13;4957098;28;20395;-72
2023/11/20 01:43:43;;;;;;;1.83;1.17;;;;;;;9.04;48.95;98537.31;4972054;28;20122;-70
2023/11/20 01:46:09;;;;;;;1.75;1.20;;;;;;;9.07;49.16;98547.50;4972022;28;20035;-70
2023/11/20 01:48:36;;;;;;;2.13;1.27;;;;;;;9.07;49.05;98533.66;4956013;28;20034;-69
2023/11/20 01:51:01;;;;;;;1.67;1.13;;;;;;;9.07;49.01;98544.06;4956302;29;20506;-69
2023/11/20 01:53:27;;;;;;;2.67;1.33;;;;;;;9.04;49.16;98560.75;4955803;28;20031;-69
2023/11/20 01:55:52;;;;;;;2.08;1.38;;;;;;;9.05;49.08;98552.00;4955584;29;20039;-69
2023/11/20 01:58:18;;;;;;;2.72;1.50;;;;;;;8.99;49.00;98555.88;4955879;29;20398;-69
2023/11/20 02:00:43;;;;;;;2.05;1.08;;;;;;;9.03;48.82;98572.13;4955661;29;20027;-68
2023/11/20 02:03:09;;;;;;;1.88;1.30;;;;;;;9.01;49.36;98573.97;4956954;28;20446;-69
2023/11/20 02:05:34;;;;;;;1.90;1.40;;;;;;;9.03;49.03;98570.34;4955933;29;20046;-69
2023/11/20 02:08:01;;;;;;;2.10;1.30;;;;;;;8.97;48.95;98555.16;4955674;28;20043;-69
2023/11/20 02:10:26;;;;;;;1.70;1.17;;;;;;;9.03;49.02;98575.53;4955615;28;20058;-68
2023/11/20 02:12:51;;;;;;;1.75;1.15;;;;;;;9.02;48.94;98573.88;4955228;28;20471;-68
2023/11/20 02:15:18;;;;;;;1.55;1.08;;;;;;;9.03;49.14;98583.34;4955922;29;20031;-68
2023/11/20 02:17:44;;;;;;;1.95;1.20;;;;;;;9.00;49.05;98567.13;4971228;28;20550;-68
2023/11/20 02:20:10;;;;;;;1.80;1.10;;;;;;;9.04;49.13;98572.00;4955369;29;20110;-69
2023/11/20 02:22:36;;;;;;;2.60;1.40;;;;;;;9.04;49.02;98566.78;4956780;28;20430;-68
2023/11/20 02:25:01;;;;;;;1.92;1.20;;;;;;;9.05;49.15;98562.41;4955291;28;20039;-69
2023/11/20 02:27:49;;;;;;;1.90;1.20;;;;;;;9.10;49.22;98575.91;4939535;29;20062;-69
2023/11/20 02:30:14;;;;;;;1.90;1.20;;;;;;;9.11;49.34;98561.97;4954915;28;20032;-69
2023/11/20 02:32:39;;;;;;;2.03;1.30;;;;;;;9.11;49.44;98556.75;4954577;29;20035;-69
2023/11/20 02:35:05;;;;;;;1.33;0.90;;;;;;;9.14;49.33;98548.72;4952996;28;20034;-69
2023/11/20 02:37:31;;;;;;;1.58;1.17;;;;;;;9.13;49.26;98535.81;4954767;28;20495;-69
2023/11/20 02:39:56;;;;;;;1.65;1.20;;;;;;;9.13;48.89;98533.22;4956310;28;20066;-69
2023/11/20 02:42:22;;;;;;;1.80;1.20;;;;;;;9.18;49.17;98531.09;4955209;28;20114;-68
2023/11/20 02:44:48;;;;;;;2.08;1.35;;;;;;;9.14;48.98;98525.28;4955280;29;20027;-69
2023/11/20 02:47:13;;;;;;;1.65;0.98;;;;;;;9.14;48.99;98511.41;4954813;29;20130;-70
2023/11/20 02:49:39;;;;;;;2.00;1.27;;;;;;;9.14;48.74;98511.41;4955115;28;20513;-69
2023/11/20 02:52:05;;;;;;;1.75;1.20;;;;;;;9.14;48.67;98508.81;4970871;28;20034;-69
2023/11/20 02:54:31;;;;;;;1.85;1.10;;;;;;;9.11;48.92;98499.47;4956114;28;20033;-69
2023/11/20 02:56:57;;;;;;;1.65;1.10;;;;;;;9.12;49.04;98492.47;4970681;28;20079;-69
2023/11/20 02:59:23;;;;;;;1.77;1.20;;;;;;;9.13;48.93;98505.38;4970580;28;20063;-69
2023/11/20 03:01:48;;;;;;;1.95;1.20;;;;;;;9.14;49.09;98501.84;4954499;29;20035;-70
2023/11/20 03:04:18;;;;;;;2.90;1.10;;;;;;;9.13;48.95;98499.34;4954549;29;20047;-69
2023/11/20 03:06:44;;;;;;;1.40;1.10;;;;;;;9.08;49.22;98504.06;4938741;29;20058;-70
2023/11/20 03:09:09;;;;;;;2.35;1.15;;;;;;;9.11;49.01;98509.03;4954261;28;20031;-70
2023/11/20 03:11:35;;;;;;;1.48;1.00;;;;;;;9.10;48.87;98508.22;4954870;29;20086;-70
2023/11/20 03:14:00;;;;;;;2.17;1.08;;;;;;;9.09;48.78;98503.94;4954405;28;20035;-70
2023/11/20 03:16:26;;;;;;;1.55;1.00;;;;;;;9.04;48.97;98493.91;4938379;28;20586;-70
2023/11/20 03:18:51;;;;;;;1.35;1.05;;;;;;;9.03;49.17;98483.59;4954236;28;20065;-70
2023/11/20 03:21:17;;;;;;;1.75;0.98;;;;;;;9.08;49.19;98504.91;4970111;28;20407;-70
2023/11/20 03:23:42;;;;;;;1.70;1.08;;;;;;;9.10;49.18;98499.59;4954194;28;20066;-70
2023/11/20 03:26:08;;;;;;;1.45;1.00;;;;;;;9.09;49.20;98501.34;4954696;28;20047;-70
2023/11/20 03:28:33;;;;;;;1.65;0.98;;;;;;;9.07;48.80;98490.22;4955270;28;20035;-69
2023/11/20 03:30:59;;;;;;;2.97;1.10;;;;;;;9.08;49.06;98478.88;4970414;28;20031;-69
2023/11/20 03:33:24;;;;;;;1.67;0.90;;;;;;;9.07;48.79;98478.97;4955180;28;20106;-70
2023/11/20 03:35:50;;;;;;;1.33;0.90;;;;;;;9.04;49.19;98470.47;4953700;29;20043;-70
2023/11/20 03:38:15;;;;;;;1.58;1.00;;;;;;;9.01;49.12;98473.28;4937612;28;20070;-69
2023/11/20 03:40:42;;;;;;;1.48;0.90;;;;;;;9.00;49.00;98473.41;4938013;28;20035;-69
2023/11/20 03:43:08;;;;;;;1.15;0.80;;;;;;;8.97;49.09;98471.84;4953909;29;20027;-70
2023/11/20 03:45:33;;;;;;;1.42;0.90;;;;;;;8.99;49.13;98479.53;4953476;29;20042;-69
2023/11/20 03:47:59;;;;;;;1.90;1.10;;;;;;;8.93;49.19;98466.97;4953602;29;20093;-69
2023/11/20 03:50:24;;;;;;;1.48;0.90;;;;;;;8.97;48.80;98468.41;4954639;28;20109;-70
2023/11/20 03:52:51;;;;;;;2.00;1.00;;;;;;;8.90;48.98;98459.38;4953386;29;20050;-70
2023/11/20 03:55:16;;;;;;;1.25;0.82;;;;;;;8.93;49.12;98462.59;4953457;28;20043;-69
2023/11/20 03:57:44;;;;;;;2.47;1.10;;;;;;;8.90;48.98;98455.00;4954757;28;20027;-69
2023/11/20 04:00:10;;;;;;;1.60;1.00;;;;;;;8.91;49.09;98453.25;4954435;28;20027;-69
2023/11/20 04:02:36;;;;;;;1.45;0.80;;;;;;;8.88;49.39;98446.50;4953403;28;20078;-69
2023/11/20 04:05:01;;;;;;;1.02;0.80;;;;;;;8.90;48.96;98455.00;4953129;28;20062;-69
2023/11/20 04:07:27;;;;;;;1.55;1.00;;;;;;;8.87;49.05;98458.69;4954367;28;20113;-69
2023/11/20 04:09:52;;;;;;;1.40;0.80;;;;;;;8.92;49.16;98457.50;4969140;28;20468;-69
2023/11/20 04:12:18;;;;;;;1.60;1.00;;;;;;;8.93;49.02;98459.16;4953121;28;20031;-69
2023/11/20 04:14:43;;;;;;;1.42;0.88;;;;;;;8.86;49.18;98454.41;4954017;28;20035;-69
2023/11/20 04:17:09;;;;;;;1.50;0.88;;;;;;;8.91;49.28;98461.88;4969118;28;20380;-68
2023/11/20 04:19:34;;;;;;;1.80;1.08;;;;;;;8.91;48.97;98476.69;4969552;28;20050;-69
2023/11/20 04:22:00;;;;;;;1.27;0.85;;;;;;;8.90;49.13;98485.41;4952675;29;20106;-68
2023/11/20 04:24:25;;;;;;;1.50;0.90;;;;;;;8.84;49.19;98465.91;4953935;28;20150;-69
2023/11/20 04:26:51;;;;;;;1.60;0.93;;;;;;;8.91;49.28;98476.69;4953475;28;20110;-69
2023/11/20 04:29:16;;;;;;;1.42;0.88;;;;;;;8.92;49.16;98484.38;4952925;29;20039;-69
2023/11/20 04:31:42;;;;;;;0.90;0.68;;;;;;;8.92;49.27;98476.56;4954154;28;20083;-70
2023/11/20 04:34:07;;;;;;;1.40;0.95;;;;;;;8.90;49.44;98467.19;4968748;28;20027;-70
2023/11/20 04:36:33;;;;;;;2.50;0.98;;;;;;;8.96;49.13;98484.97;4952386;29;20031;-70
2023/11/20 04:38:58;;;;;;;1.70;1.10;;;;;;;8.96;48.82;98471.97;4953877;28;20391;-70
2023/11/20 04:41:24;;;;;;;1.05;0.80;;;;;;;8.99;49.15;98482.16;4936626;29;20028;-69
2023/11/20 04:43:50;;;;;;;1.30;0.85;;;;;;;9.01;48.77;98488.06;4952785;29;20482;-74
2023/11/20 04:46:15;;;;;;;2.20;1.00;;;;;;;9.02;49.14;98494.94;4952849;28;20097;-73
2023/11/20 04:48:41;;;;;;;2.08;1.00;;;;;;;9.01;52.79;98483.69;4952620;29;20039;-75
2023/11/20 04:51:06;;;;;;;1.38;0.90;;;;;;;9.10;50.47;98491.78;4952524;28;20039;-73
2023/11/20 04:53:32;;;;;;;7.63;1.25;;;;;;;9.58;65.75;98502.91;4952681;28;20053;-74
2023/11/20 04:55:57;;;;;;;3.13;1.23;;;;;;;9.68;63.08;98505.63;4953030;28;20035;-73
2023/11/20 04:58:23;;;;;;;4.97;1.63;;;;;;;9.77;63.79;98515.34;4952960;28;20042;-75
2023/11/20 05:00:49;;;;;;;5.32;1.30;;;;;;;9.88;63.46;98517.16;4968615;28;20513;-72
2023/11/20 05:03:15;;;;;;;3.08;1.10;;;;;;;9.85;61.53;98506.94;4968512;28;20035;-74
2023/11/20 05:05:41;;;;;;;6.13;1.83;;;;;;;9.76;60.84;98492.84;4953684;28;20103;-73
2023/11/20 05:08:06;;;;;;;3.58;1.50;;;;;;;9.76;60.31;98489.41;4968470;28;20042;-76
2023/11/20 05:10:34;;;;;;;7.57;1.40;;;;;;;9.67;59.90;98490.91;4969260;28;20019;-81
2023/11/20 05:13:00;;;;;;;6.15;1.40;;;;;;;9.67;59.55;98509.16;4936855;28;20343;-83
2023/11/20 05:15:25;;;;;;;2.65;1.05;;;;;;;9.63;59.10;98491.28;4936760;28;20118;-71
2023/11/20 05:17:50;;;;;;;3.10;1.17;;;;;;;9.55;58.86;98505.72;4953680;28;20035;-71
2023/11/20 05:20:16;;;;;;;2.67;1.10;;;;;;;9.56;58.45;98504.75;4952142;28;20069;-71
2023/11/20 05:22:41;;;;;;;10.48;1.60;;;;;;;9.53;57.95;98497.19;4954221;28;20055;-71
2023/11/20 05:25:07;;;;;;;7.22;1.45;;;;;;;9.53;57.70;98493.75;4953626;28;20454;-72
2023/11/20 05:27:33;;;;;;;2.75;1.20;;;;;;;9.53;57.39;98484.16;4953632;28;20086;-73
2023/11/20 05:29:58;;;;;;;4.22;1.33;;;;;;;9.52;57.04;98486.88;4936684;29;20680;-72
2023/11/20 05:32:24;;;;;;;2.38;1.30;;;;;;;9.50;56.53;98479.16;4936656;29;20047;-71
2023/11/20 05:34:49;;;;;;;2.45;1.30;;;;;;;9.51;56.32;98485.22;4953633;28;20164;-72
2023/11/20 05:37:15;;;;;;;1.70;1.02;;;;;;;9.49;55.81;98474.06;4952825;29;20402;-71
2023/11/20 05:39:40;;;;;;;3.03;1.20;;;;;;;9.54;55.66;98485.81;4968558;28;20086;-71
2023/11/20 05:42:06;;;;;;;3.65;1.50;;;;;;;9.56;55.69;98477.88;4968525;28;20410;-72
2023/11/20 05:44:32;;;;;;;3.35;1.77;;;;;;;9.62;54.96;98484.41;4952396;29;20027;-72
2023/11/20 05:46:57;;;;;;;3.42;1.25;;;;;;;9.68;54.70;98482.16;4953323;28;20070;-71
2023/11/20 05:49:23;;;;;;;3.22;1.33;;;;;;;9.68;54.67;98478.75;4938849;28;20036;-73
2023/11/20 05:51:48;;;;;;;2.40;1.20;;;;;;;9.70;54.26;98484.66;4955732;29;20467;-71
2023/11/20 05:54:14;;;;;;;5.28;1.40;;;;;;;9.71;54.17;98481.09;4939668;28;20094;-72
2023/11/20 05:56:40;;;;;;;2.00;1.25;;;;;;;9.81;53.73;98492.47;4955643;28;20122;-72
2023/11/20 05:59:08;;;;;;;5.50;1.17;;;;;;;9.92;53.27;98495.09;4955718;28;20027;-74
2023/11/20 06:01:40;;;;;;;2.95;1.23;;;;;;;11.03;51.11;98509.81;4955443;28;20089;-73
2023/11/20 06:04:08;;;;;;;3.97;1.40;;;;;;;11.14;50.50;98502.88;4955779;29;20460;-72
2023/11/20 06:06:34;;;;;;;3.20;1.10;;;;;;;11.03;50.59;98504.56;4955488;29;20042;-74
2023/11/20 06:09:04;;;;;;;3.35;1.50;;;;;;;11.17;50.26;98508.69;4955291;29;20059;-72
2023/11/20 06:11:29;;;;;;;2.55;1.30;;;;;;;11.10;50.20;98497.09;4971021;28;20027;-73
2023/11/20 06:13:57;;;;;;;2.80;1.30;;;;;;;11.26;50.08;98504.50;4939857;28;20562;-72
2023/11/20 06:16:22;;;;;;;2.85;1.50;;;;;;;11.57;49.21;98500.16;4939522;28;20033;-73
2023/11/20 06:18:48;;;;;;;2.65;1.20;;;;;;;11.62;48.84;98501.53;4955313;29;20038;-72
2023/11/20 06:21:13;;;;;;;2.67;1.60;;;;;;;13.88;44.29;98512.13;4955161;28;20507;-74
2023/11/20 06:23:39;;;;;;;3.97;1.63;;;;;;;14.72;42.87;98512.97;4955448;29;20039;-73
2023/11/20 06:26:04;;;;;;;3.30;1.60;;;;;;;16.61;39.25;98512.38;4956429;28;20027;-73
2023/11/20 06:28:30;;;;;;;2.63;1.20;;;;;;;18.15;36.82;98505.53;4955254;29;20074;-72
2023/11/20 06:30:56;;;;;;;4.18;1.27;;;;;;;19.65;34.70;98497.25;4956001;28;20187;-73
2023/11/20 06:33:21;;;;;;;2.08;1.00;;;;;;;21.07;32.67;98492.66;4956008;28;20478;-73
2023/11/20 06:35:47;;;;;;;3.88;1.40;;;;;;;22.44;30.57;98488.66;4956219;28;20035;-72
2023/11/20 06:38:13;;;;;;;2.40;1.48;;;;;;;23.79;28.73;98503.69;4955270;29;20034;-72
2023/11/20 06:40:41;;;;;;;2.63;0.90;;;;;;;24.93;26.89;98506.75;4970947;28;20047;-73
2023/11/20 06:43:08;;;;;;;2.83;1.23;;;;;;;25.85;25.92;98494.69;4956043;28;20035;-72
2023/11/20 06:45:34;;;;;;;2.30;1.10;;;;;;;26.52;25.03;98505.47;4955001;28;20465;-71
2023/11/20 06:48:00;;;;;;;3.75;1.30;;;;;;;26.78;24.44;98500.81;4956455;28;20134;-72
2023/11/20 06:50:27;;;;;;;2.42;1.17;;;;;;;26.85;24.21;98502.34;4954916;29;20123;-72
2023/11/20 06:52:53;;;;;;;2.63;1.20;;;;;;;26.78;24.56;98495.44;4954715;28;20050;-72
2023/11/20 06:55:19;;;;;;;7.45;1.20;;;;;;;26.67;24.96;98494.38;4956408;28;20067;-72
2023/11/20 06:57:44;;;;;;;6.55;1.40;;;;;;;26.49;25.04;98512.06;4970714;28;20035;-72
2023/11/20 07:00:14;;;;;;;3.33;1.30;;;;;;;26.48;25.31;98504.28;4954179;28;20470;-72
2023/11/20 07:02:42;;;;;;;2.97;1.70;;;;;;;26.49;25.24;98477.28;4939104;28;20050;-74
2023/11/20 07:05:16;;;;;;;3.83;1.58;;;;;;;26.68;24.71;98478.06;4954613;29;20119;-71
2023/11/20 07:07:51;;;;;;;3.33;1.40;;;;;;;26.47;25.23;98508.81;4955817;28;20074;-72
2023/11/20 07:10:23;;;;;;;2.58;1.52;;;;;;;26.67;25.01;98502.41;4954430;28;20483;-71
2023/11/20 07:12:53;;;;;;;4.07;1.70;;;;;;;26.83;25.07;98491.03;4938484;28;20030;-70
2023/11/20 07:15:19;;;;;;;3.03;1.58;;;;;;;26.87;24.79;98497.56;4954524;28;20118;-71
2023/11/20 07:17:45;;;;;;;3.08;1.60;;;;;;;26.86;24.99;98495.94;4954225;28;20483;-70
2023/11/20 07:20:10;;;;;;;3.72;1.70;;;;;;;26.92;24.97;98485.38;4953885;29;20038;-71
2023/11/20 07:22:36;;;;;;;3.83;2.00;;;;;;;27.01;24.68;98487.47;4969960;28;20130;-71
2023/11/20 07:25:03;;;;;;;2.53;1.50;;;;;;;27.12;24.43;98482.34;4970046;28;20043;-70
2023/11/20 07:27:30;;;;;;;4.03;1.60;;;;;;;27.35;24.41;98465.53;4954124;29;20039;-71
2023/11/20 07:29:55;;;;;;;2.83;1.60;;;;;;;27.50;24.18;98470.41;4970067;28;20101;-70
2023/11/20 07:32:21;;;;;;;4.22;1.63;;;;;;;27.79;23.80;98479.38;4937982;28;20482;-70
2023/11/20 07:34:47;;;;;;;4.20;1.83;;;;;;;28.01;23.69;98481.47;4970126;28;20042;-71
2023/11/20 07:37:12;;;;;;;6.90;1.50;;;;;;;28.27;23.26;98480.09;4955053;28;20529;-70
2023/11/20 07:39:38;;;;;;;3.30;1.70;;;;;;;28.16;23.41;98473.72;4953901;28;20047;-72
2023/11/20 07:42:03;;;;;;;2.85;1.50;;;;;;;28.20;23.05;98480.25;4954134;28;20070;-71
2023/11/20 07:44:29;;;;;;;2.90;1.50;;;;;;;28.43;22.98;98482.03;4955133;28;20114;-71
2023/11/20 07:46:54;;;;;;;3.88;1.60;;;;;;;27.82;23.68;98476.22;4955260;28;20035;-70
2023/11/20 07:49:20;;;;;;;4.43;1.55;;;;;;;27.77;23.60;98468.88;4953568;29;20488;-72
2023/11/20 07:51:46;;;;;;;2.75;1.58;;;;;;;28.20;23.14;98466.03;4953955;28;20050;-71
2023/11/20 07:54:12;;;;;;;4.95;1.70;;;;;;;28.60;22.86;98465.19;4953615;29;20053;-71
2023/11/20 07:56:38;;;;;;;5.40;1.85;;;;;;;28.84;22.79;98460.47;4954974;28;20466;-70
2023/11/20 07:59:03;;;;;;;2.90;1.63;;;;;;;28.57;22.82;98450.31;4954099;28;20521;-70
2023/11/20 08:01:29;;;;;;;3.65;1.70;;;;;;;28.29;22.84;98457.34;4953405;28;20031;-71
2023/11/20 08:03:54;;;;;;;2.70;1.40;;;;;;;28.69;22.50;98453.00;4954891;28;20102;-71
2023/11/20 08:06:20;;;;;;;3.45;1.80;;;;;;;28.89;22.75;98447.13;4953611;28;20439;-72
2023/11/20 08:08:46;;;;;;;3.42;1.90;;;;;;;28.97;22.25;98438.69;4953406;28;20048;-72
2023/11/20 08:11:11;;;;;;;4.38;1.67;;;;;;;29.15;22.33;98432.25;4952645;28;20523;-72
2023/11/20 08:13:37;;;;;;;3.58;1.77;;;;;;;29.30;22.58;98445.13;4953421;29;20061;-72
2023/11/20 08:16:03;;;;;;;4.85;2.03;;;;;;;29.51;21.93;98465.06;4953355;28;20122;-72
2023/11/20 08:18:29;;;;;;;7.68;1.90;;;;;;;29.74;21.81;98464.00;4953400;28;20036;-72
2023/11/20 08:20:54;;;;;;;4.18;2.20;;;;;;;29.37;22.04;98439.59;4953226;29;20050;-72
2023/11/20 08:23:20;;;;;;;6.95;2.50;;;;;;;28.83;22.86;98437.38;4968995;28;20047;-73
2023/11/20 08:25:46;;;;;;;6.55;2.85;;;;;;;29.13;22.25;98431.69;4954375;28;20530;-71
2023/11/20 08:28:11;;;;;;;6.90;3.17;;;;;;;28.68;22.55;98422.63;4969137;28;20053;-71
2023/11/20 08:30:37;;;;;;;9.00;3.08;;;;;;;28.62;22.68;98417.41;4953117;28;20487;-71
2023/11/20 08:33:02;;;;;;;10.30;4.20;;;;;;;28.85;22.71;98421.84;4954256;28;20046;-71
2023/11/20 08:35:28;;;;;;;16.85;4.75;;;;;;;29.10;21.96;98426.78;4954167;28;20403;-72
2023/11/20 08:37:54;;;;;;;10.02;4.70;;;;;;;29.05;22.33;98424.84;4954260;28;20125;-72
2023/11/20 08:40:20;;;;;;;11.18;5.10;;;;;;;29.20;22.34;98404.66;4952650;29;20081;-70
2023/11/20 08:42:46;;;;;;;14.60;5.10;;;;;;;28.56;22.87;98408.44;4953575;29;20491;-74
2023/11/20 08:45:12;;;;;;;13.55;5.82;;;;;;;27.65;23.98;98400.25;4954251;28;20027;-72
2023/11/20 08:47:39;;;;;;;20.15;6.25;;;;;;;26.90;24.53;98405.25;4952945;29;20438;-72
2023/11/20 08:50:06;;;;;;;15.15;6.05;;;;;;;26.21;25.37;98402.13;4953147;29;20027;-72
2023/11/20 08:52:32;;;;;;;20.63;6.97;;;;;;;25.54;26.09;98414.41;4953339;29;20049;-71
2023/11/20 08:54:57;;;;;;;14.93;6.93;;;;;;;25.11;26.49;98412.53;4953056;29;20187;-71
2023/11/20 08:57:23;;;;;;;21.08;7.35;;;;;;;24.56;27.09;98400.66;4952953;29;20090;-71
2023/11/20 08:59:49;;;;;;;15.65;6.90;;;;;;;24.05;27.57;98409.50;4953033;29;20087;-72
2023/11/20 09:02:15;;;;;;;21.20;7.50;;;;;;;23.56;28.30;98398.41;4969093;28;20058;-71
2023/11/20 09:04:41;;;;;;;17.13;7.05;;;;;;;23.08;29.09;98409.34;4953061;29;20031;-71
2023/11/20 09:07:08;;;;;;;20.45;6.90;;;;;;;22.68;29.50;98396.81;4953121;29;20066;-71
2023/11/20 09:09:35;;;;;;;17.70;6.53;;;;;;;22.22;30.48;98393.03;4953014;29;20035;-71
2023/11/20 09:12:04;;;;;;;18.85;7.57;;;;;;;22.00;30.79;98405.63;4952970;28;20483;-72
2023/11/20 09:14:29;;;;;;;18.35;7.60;;;;;;;21.70;31.28;98383.84;4937469;28;20042;-71
2023/11/20 09:16:56;;;;;;;19.85;7.47;;;;;;;21.40;31.92;98397.34;4937320;28;20047;-70
2023/11/20 09:19:21;;;;;;;21.27;8.10;;;;;;;21.17;32.18;98394.13;4953945;28;20471;-72
2023/11/20 09:21:48;;;;;;;16.80;7.50;;;;;;;20.91;32.40;98385.78;4952197;28;20066;-71
2023/11/20 09:24:13;;;;;;;21.27;7.78;;;;;;;20.64;32.53;98390.03;4955106;29;20038;-71
2023/11/20 09:26:41;;;;;;;20.65;7.75;;;;;;;20.43;33.07;98383.69;4972435;28;20040;-72
2023/11/20 09:29:06;;;;;;;17.75;7.28;;;;;;;20.22;33.49;98387.13;4972622;28;20039;-71
2023/11/20 09:31:34;;;;;;;14.00;7.20;;;;;;;20.04;33.58;98357.63;4940991;28;20098;-71
2023/11/20 09:34:00;;;;;;;14.10;6.93;;;;;;;20.04;33.52;98381.47;4940580;28;20166;-70
2023/11/20 09:36:25;;;;;;;13.90;7.57;;;;;;;20.17;33.42;98368.34;4971784;28;20078;-70
2023/11/20 09:38:51;;;;;;;17.73;6.35;;;;;;;19.92;33.83;98377.66;4956094;29;20067;-71
2023/11/20 09:41:17;;;;;;;15.50;6.97;;;;;;;20.93;31.97;98367.00;4956027;29;20031;-70
2023/11/20 09:43:44;;;;;;;18.92;7.18;;;;;;;20.01;33.54;98353.50;4940020;28;20030;-71
2023/11/20 09:46:11;;;;;;;15.38;6.47;;;;;;;21.61;31.28;98346.00;4955966;29;20031;-71
2023/11/20 09:48:38;;;;;;;12.30;6.57;;;;;;;21.92;30.35;98349.16;4955895;29;20403;-71
2023/11/20 09:51:05;;;;;;;11.57;5.63;;;;;;;22.06;30.43;98340.25;4971800;28;20467;-71
2023/11/20 09:53:37;;;;;;;15.20;6.03;;;;;;;22.22;30.10;98350.50;4971908;28;20024;-71
2023/11/20 09:56:06;;;;;;;15.07;5.72;;;;;;;23.17;28.86;98327.44;4956025;29;20471;-70
2023/11/20 09:58:32;;;;;;;12.38;5.68;;;;;;;23.73;28.33;98305.47;4940218;28;20034;-71
2023/11/20 10:01:05;;;;;;;11.10;5.60;;;;;;;23.89;28.34;98336.19;4955785;29;20475;-70
2023/11/20 10:03:31;;;;;;;11.70;5.20;;;;;;;24.36;27.88;98318.03;4971629;28;20109;-71
2023/11/20 10:05:59;;;;;;;10.20;5.32;;;;;;;25.12;26.95;98311.88;4955449;29;20057;-71
2023/11/20 10:08:24;;;;;;;12.18;5.13;;;;;;;25.41;26.50;98303.16;4955609;29;20031;-72
2023/11/20 10:10:51;;;;;;;7.93;4.70;;;;;;;25.93;25.67;98307.22;4955981;29;20058;-71
2023/11/20 10:13:16;;;;;;;10.15;4.50;;;;;;;26.26;25.42;98314.78;4955359;29;20035;-70
2023/11/20 10:15:42;;;;;;;9.73;4.47;;;;;;;26.66;24.98;98308.84;4955875;28;20050;-71
2023/11/20 10:18:07;;;;;;;8.18;4.43;;;;;;;26.43;25.07;98317.63;4956512;28;20109;-71
2023/11/20 10:20:49;;;;;;;7.57;4.15;;;;;;;26.42;24.72;98332.03;4954941;28;20066;-72
2023/11/20 10:23:18;;;;;;;8.52;4.32;;;;;;;26.45;25.10;98320.06;4939173;28;20047;-71
2023/11/20 10:25:45;;;;;;;10.45;3.90;;;;;;;26.18;25.29;98321.28;4939189;28;20042;-72
2023/11/20 10:28:14;;;;;;;7.70;4.10;;;;;;;25.63;25.73;98295.50;4939732;28;20126;-75
2023/11/20 10:30:41;;;;;;;7.57;3.95;;;;;;;25.79;25.56;98290.53;4955362;29;20023;-75
2023/11/20 10:33:19;;;;;;;6.85;3.45;;;;;;;25.71;26.14;98291.66;4955413;29;20517;-70
2023/11/20 10:35:46;;;;;;;6.28;3.28;;;;;;;25.27;26.38;98281.09;4954592;29;20039;-69
2023/11/20 10:38:11;;;;;;;7.90;3.38;;;;;;;25.50;26.58;98271.59;4954996;29;20050;-70
2023/11/20 10:40:49;;;;;;;6.95;3.40;;;;;;;25.64;26.43;98266.91;4971401;28;20027;-70
2023/11/20 10:43:14;;;;;;;;;;;;;;;25.66;26.15;98272.03;4940887;28;20421;-72
2023/11/20 10:45:40;;;;;;;5.28;2.80;;;;;;;25.14;26.94;98283.09;4954882;28;19910;-71
2023/11/20 10:48:09;;;;;;;6.55;2.80;;;;;;;24.84;27.28;98289.16;4956003;28;20029;-72
2023/11/20 10:50:35;;;;;;;4.70;2.30;;;;;;;25.11;26.95;98284.34;4939115;28;20038;-71
2023/11/20 10:53:07;;;;;;;4.93;2.53;;;;;;;25.06;27.36;98274.34;4954927;29;20058;-70
2023/11/20 10:55:43;;;;;;;7.90;2.58;;;;;;;24.81;27.48;98271.75;4954671;29;20041;-71
2023/11/20 10:58:10;;;;;;;4.32;2.38;;;;;;;24.42;27.85;98283.56;4954512;28;20098;-70
2023/11/20 11:00:36;;;;;;;5.43;2.53;;;;;;;24.20;28.25;98275.91;4954511;29;20055;-71
2023/11/20 11:03:03;;;;;;;4.53;2.50;;;;;;;24.24;28.19;98285.09;4954604;28;20074;-71
2023/11/20 11:05:28;;;;;;;3.53;2.10;;;;;;;23.97;28.64;98279.97;4954468;28;20102;-72
2023/11/20 11:07:54;;;;;;;4.90;2.10;;;;;;;23.75;28.77;98286.63;4954941;28;20043;-72
2023/11/20 11:10:19;;;;;;;5.13;2.25;;;;;;;23.64;28.88;98275.63;4954435;29;20471;-70
2023/11/20 11:12:46;;;;;;;2.90;1.60;;;;;;;23.33;32.41;98268.38;4954454;29;20035;-69
2023/11/20 11:15:13;;;;;;;3.13;1.50;;;;;;;23.07;33.42;98269.25;4955386;28;20067;-68
2023/11/20 11:18:04;;;;;;;5.65;1.55;;;;;;;23.09;32.77;98277.88;4970117;28;20110;-73
2023/11/20 11:20:53;;;;;;;4.30;1.67;;;;;;;23.01;33.97;98288.69;4956043;28;20039;-73
2023/11/20 11:23:39;;;;;;;6.95;1.92;;;;;;;22.69;35.44;98294.72;4954513;29;20058;-72
2023/11/20 11:26:53;;;;;;;3.35;1.30;;;;;;;22.68;35.63;98287.75;4972408;28;20046;-73
2023/11/20 11:29:23;;;;;;;2.85;1.20;;;;;;;22.51;35.67;98290.00;4953546;29;20049;-76
2023/11/20 11:32:06;;;;;;;8.63;1.50;;;;;;;22.25;35.71;98292.63;4921168;29;20032;-73
2023/11/20 11:34:43;;;;;;;6.43;1.55;;;;;;;22.15;36.02;98299.13;4953246;29;20046;-76